Time;durP1;ratioP1;P1;durP2;ratioP2;P2;SDS_P1;SDS_P2;PMS_P1;PMS_P2;Temp;Humidity;BMP_temperature;BMP_pressure;BME280_temperature;BME280_humidity;BME280_pressure;Samples;Min_cycle;Max_cycle;Signal;HPM_P1;HPM_P2
2024/02/24 00:00:15;;;;;;;2.00;1.40;;;;;;;7.29;82.71;99265.31;110963;1206;138492;-71
2024/02/24 00:02:41;;;;;;;3.30;1.80;;;;;;;7.27;82.85;99265.58;111073;1209;99143;-71
2024/02/24 00:05:07;;;;;;;4.30;2.60;;;;;;;7.25;82.90;99260.33;111071;1209;98938;-71
2024/02/24 00:07:33;;;;;;;7.40;2.30;;;;;;;7.24;82.95;99256.88;111125;1210;138715;-71
2024/02/24 00:09:58;;;;;;;4.30;2.00;;;;;;;7.21;83.06;99252.04;111080;1209;99031;-71
2024/02/24 00:12:23;;;;;;;2.90;1.80;;;;;;;7.19;83.17;99251.23;111065;1207;138610;-71
2024/02/24 00:14:51;;;;;;;6.80;1.90;;;;;;;7.18;83.22;99249.90;111167;1209;99002;-71
2024/02/24 00:17:17;;;;;;;4.30;2.60;;;;;;;7.17;83.36;99247.27;111073;1208;139768;-71
2024/02/24 00:19:42;;;;;;;3.50;2.10;;;;;;;7.19;83.45;99240.58;111213;1208;99092;-71
2024/02/24 00:22:07;;;;;;;5.20;2.40;;;;;;;7.21;83.62;99238.38;111162;1209;99127;-71
2024/02/24 00:24:32;;;;;;;2.90;2.40;;;;;;;7.18;83.60;99237.95;111045;1206;138659;-71
2024/02/24 00:26:58;;;;;;;7.90;2.40;;;;;;;7.17;83.76;99227.37;111192;1206;98990;-71
2024/02/24 00:29:23;;;;;;;6.00;2.30;;;;;;;7.18;83.77;99217.91;111066;1206;139046;-70
2024/02/24 00:31:48;;;;;;;3.90;2.60;;;;;;;7.16;83.87;99207.17;111209;1205;98925;-73
2024/02/24 00:34:14;;;;;;;5.70;2.40;;;;;;;7.14;83.92;99204.23;111100;1206;98938;-72
2024/02/24 00:36:40;;;;;;;5.10;2.50;;;;;;;7.13;84.06;99200.00;110962;1206;138488;-71
2024/02/24 00:39:05;;;;;;;6.90;2.80;;;;;;;7.13;84.12;99186.88;111118;1209;99023;-71
2024/02/24 00:41:31;;;;;;;4.70;2.30;;;;;;;7.14;84.25;99183.83;110986;1208;139612;-71
2024/02/24 00:43:56;;;;;;;3.40;1.60;;;;;;;7.14;84.34;99175.80;111082;1209;99014;-71
2024/02/24 00:46:21;;;;;;;4.10;2.00;;;;;;;7.15;84.39;99171.35;111232;1208;98265;-73
2024/02/24 00:48:46;;;;;;;3.90;2.00;;;;;;;7.12;84.35;99165.96;111031;1209;138743;-71
2024/02/24 00:51:12;;;;;;;3.10;1.70;;;;;;;7.10;84.43;99166.99;111163;1206;97532;-71
2024/02/24 00:53:38;;;;;;;3.40;1.60;;;;;;;7.11;84.50;99164.98;111021;1206;139036;-71
2024/02/24 00:56:04;;;;;;;3.90;1.80;;;;;;;7.09;84.56;99154.74;111075;1206;99143;-72
2024/02/24 00:58:30;;;;;;;6.70;2.10;;;;;;;7.09;84.62;99143.25;111135;1210;98935;-71
2024/02/24 01:00:55;;;;;;;4.10;1.70;;;;;;;7.07;84.68;99149.02;110965;1206;138660;-71
2024/02/24 01:03:20;;;;;;;3.20;1.80;;;;;;;7.04;84.67;99158.58;111109;1206;99037;-71
2024/02/24 01:05:50;;;;;;;4.00;1.60;;;;;;;7.04;84.90;99163.58;111084;1206;138670;-71
2024/02/24 01:08:16;;;;;;;5.40;2.40;;;;;;;6.99;84.84;99161.16;111032;1206;99037;-74
2024/02/24 01:10:41;;;;;;;3.10;1.80;;;;;;;6.99;84.94;99170.02;111114;1206;100315;-71
2024/02/24 01:13:06;;;;;;;3.90;2.00;;;;;;;6.98;85.04;99169.38;111057;1209;139369;-71
2024/02/24 01:15:33;;;;;;;5.60;2.30;;;;;;;6.98;85.13;99168.16;111073;1210;98966;-71
2024/02/24 01:17:58;;;;;;;5.20;1.80;;;;;;;6.97;85.16;99162.34;110908;1206;139471;-71
2024/02/24 01:20:25;;;;;;;8.00;2.50;;;;;;;6.96;85.35;99161.34;111141;1210;99035;-71
2024/02/24 01:22:53;;;;;;;6.70;3.10;;;;;;;6.97;85.32;99156.15;111127;1206;100011;-72
2024/02/24 01:25:21;;;;;;;7.00;2.80;;;;;;;6.96;85.35;99144.30;110993;1210;139065;-71
2024/02/24 01:27:46;;;;;;;3.50;2.00;;;;;;;6.93;85.38;99135.05;111079;1208;99073;-71
2024/02/24 01:30:13;;;;;;;7.70;2.20;;;;;;;6.91;85.46;99134.25;111035;1206;138666;-72
2024/02/24 01:32:38;;;;;;;3.10;1.90;;;;;;;6.90;85.61;99131.48;111243;1206;99115;-71
2024/02/24 01:35:07;;;;;;;4.60;1.80;;;;;;;6.91;85.73;99125.89;111101;1206;106153;-71
2024/02/24 01:37:32;;;;;;;3.80;2.10;;;;;;;6.91;85.68;99114.89;111062;1206;139336;-72
2024/02/24 01:39:58;;;;;;;3.50;1.60;;;;;;;6.88;85.64;99103.55;111153;1209;98991;-71
2024/02/24 01:42:23;;;;;;;5.70;1.80;;;;;;;6.86;85.83;99103.64;111066;1206;138590;-71
2024/02/24 01:44:48;;;;;;;3.70;1.80;;;;;;;6.84;85.79;99098.74;111124;1206;98923;-71
2024/02/24 01:47:13;;;;;;;2.80;1.80;;;;;;;6.83;85.87;99098.59;111045;1206;96553;-72
2024/02/24 01:49:40;;;;;;;3.30;1.60;;;;;;;6.82;85.95;99097.95;111050;1206;138323;-72
2024/02/24 01:52:06;;;;;;;4.30;2.10;;;;;;;6.81;86.02;99099.23;111122;1206;98939;-72
2024/02/24 01:54:34;;;;;;;2.20;1.70;;;;;;;6.80;86.13;99093.25;111267;1209;138466;-71
2024/02/24 01:57:01;;;;;;;2.90;1.80;;;;;;;6.80;86.21;99077.45;111226;1209;99140;-72
2024/02/24 01:59:26;;;;;;;3.60;1.80;;;;;;;6.81;86.22;99076.00;111055;1209;139253;-71
2024/02/24 02:01:52;;;;;;;3.20;1.80;;;;;;;6.80;86.23;99083.85;111138;1210;98930;-71
2024/02/24 02:04:17;;;;;;;3.90;2.10;;;;;;;6.78;86.31;99083.80;111183;1208;99007;-71
2024/02/24 02:06:42;;;;;;;4.90;2.20;;;;;;;6.78;86.28;99082.90;111069;1206;138700;-71
2024/02/24 02:09:07;;;;;;;5.90;2.40;;;;;;;6.79;86.46;99082.85;111156;1206;97379;-71
2024/02/24 02:11:33;;;;;;;4.60;2.00;;;;;;;6.82;86.70;99083.91;110992;1209;138858;-71
2024/02/24 02:13:58;;;;;;;2.70;1.60;;;;;;;6.85;86.63;99088.05;111177;1206;100262;-71
2024/02/24 02:16:23;;;;;;;1.90;1.60;;;;;;;6.83;86.63;99085.27;111126;1206;98932;-72
2024/02/24 02:18:48;;;;;;;2.70;1.90;;;;;;;6.84;86.77;99084.88;111044;1206;139494;-71
2024/02/24 02:21:15;;;;;;;7.20;1.40;;;;;;;6.87;86.83;99089.17;111182;1206;98988;-72
2024/02/24 02:23:40;;;;;;;2.50;1.50;;;;;;;6.87;86.68;99082.63;111115;1206;138525;-72
2024/02/24 02:26:06;;;;;;;2.40;1.40;;;;;;;6.84;86.73;99077.25;111075;1206;99003;-72
2024/02/24 02:28:31;;;;;;;1.80;1.50;;;;;;;6.85;86.86;99079.35;111167;1206;98958;-72
2024/02/24 02:30:56;;;;;;;3.60;1.70;;;;;;;6.86;86.92;99079.32;110932;1207;138765;-72
2024/02/24 02:33:21;;;;;;;2.70;1.50;;;;;;;6.86;86.97;99069.36;111206;1206;98927;-72
2024/02/24 02:35:47;;;;;;;6.30;1.80;;;;;;;6.82;86.87;99057.64;111016;1206;138699;-72
2024/02/24 02:38:12;;;;;;;2.50;1.70;;;;;;;6.79;86.90;99049.31;111088;1210;99015;-72
2024/02/24 02:40:37;;;;;;;2.20;1.30;;;;;;;6.78;86.95;99055.89;111146;1209;99876;-72
2024/02/24 02:43:03;;;;;;;1.60;1.30;;;;;;;6.79;87.15;99059.97;110974;1209;138577;-73
2024/02/24 02:45:28;;;;;;;3.50;1.30;;;;;;;6.80;87.13;99057.42;111193;1209;99064;-72
2024/02/24 02:47:53;;;;;;;2.20;1.50;;;;;;;6.77;86.99;99050.12;110971;1206;139225;-72
2024/02/24 02:50:18;;;;;;;2.20;1.50;;;;;;;6.73;87.05;99040.93;111182;1206;99091;-72
2024/02/24 02:52:43;;;;;;;1.60;1.20;;;;;;;6.71;87.26;99051.84;111142;1206;98921;-72
2024/02/24 02:55:09;;;;;;;2.90;1.50;;;;;;;6.73;87.23;99049.11;111022;1206;138832;-72
2024/02/24 02:57:35;;;;;;;5.30;1.60;;;;;;;6.72;87.19;99041.17;111119;1206;99429;-72
2024/02/24 03:00:00;;;;;;;6.50;1.90;;;;;;;6.70;87.20;99049.61;111008;1206;139165;-72
2024/02/24 03:02:25;;;;;;;2.60;1.90;;;;;;;6.69;87.20;99055.35;111159;1207;99640;-72
2024/02/24 03:04:51;;;;;;;3.50;1.80;;;;;;;6.66;87.24;99049.31;111116;1210;100488;-72
2024/02/24 03:07:16;;;;;;;3.10;1.60;;;;;;;6.65;87.21;99058.39;111051;1206;152515;-72
2024/02/24 03:09:48;;;;;;;4.20;1.60;;;;;;;6.63;87.24;99059.55;111158;1206;99780;-72
2024/02/24 03:12:14;;;;;;;1.90;1.40;;;;;;;6.56;87.13;99048.77;111006;1209;138348;-72
2024/02/24 03:14:41;;;;;;;4.90;1.80;;;;;;;6.53;87.33;99043.77;111158;1206;99000;-72
2024/02/24 03:17:06;;;;;;;2.70;1.30;;;;;;;6.51;87.45;99045.29;111061;1206;98934;-72
2024/02/24 03:19:31;;;;;;;1.40;1.00;;;;;;;6.49;87.43;99051.60;111153;1206;138679;-72
2024/02/24 03:21:57;;;;;;;1.40;1.30;;;;;;;6.44;87.36;99052.91;111092;1209;100285;-72
2024/02/24 03:24:22;;;;;;;1.50;1.40;;;;;;;6.42;87.42;99062.11;111082;1207;139026;-72
2024/02/24 03:26:47;;;;;;;2.50;1.50;;;;;;;6.41;87.56;99059.86;111100;1209;98932;-72
2024/02/24 03:29:12;;;;;;;4.00;1.50;;;;;;;6.42;87.61;99054.30;111069;1206;99011;-72
2024/02/24 03:31:38;;;;;;;2.30;1.40;;;;;;;6.43;87.73;99046.08;111023;1206;138052;-72
2024/02/24 03:34:03;;;;;;;2.40;1.80;;;;;;;6.44;87.74;99039.98;111112;1206;99029;-72
2024/02/24 03:36:28;;;;;;;1.70;1.60;;;;;;;6.45;87.73;99032.85;111115;1206;139114;-73
2024/02/24 03:38:54;;;;;;;2.90;1.70;;;;;;;6.40;87.52;99026.02;111084;1210;98947;-72
2024/02/24 03:41:19;;;;;;;2.80;2.00;;;;;;;6.36;87.63;99026.01;111183;1206;99116;-72
2024/02/24 03:43:44;;;;;;;2.80;2.50;;;;;;;6.36;87.81;99023.52;111014;1206;137168;-72
2024/02/24 03:46:09;;;;;;;2.90;2.60;;;;;;;6.36;87.89;99024.58;111047;1206;98087;-72
2024/02/24 03:48:35;;;;;;;5.10;2.80;;;;;;;6.36;87.86;99028.48;111111;1208;138556;-72
2024/02/24 03:51:01;;;;;;;3.00;2.20;;;;;;;6.34;87.84;99036.77;111136;1206;98936;-72
2024/02/24 03:53:28;;;;;;;3.70;2.20;;;;;;;6.31;87.84;99038.70;111032;1209;139167;-72
2024/02/24 03:55:53;;;;;;;2.80;2.30;;;;;;;6.28;87.91;99041.18;111234;1205;98935;-72
2024/02/24 03:58:19;;;;;;;4.00;2.10;;;;;;;6.25;87.88;99046.30;111144;1209;98910;-72
2024/02/24 04:00:45;;;;;;;1.70;1.60;;;;;;;6.25;88.06;99042.23;111078;1206;138907;-72
2024/02/24 04:03:10;;;;;;;2.70;1.70;;;;;;;6.24;88.01;99039.77;111173;1206;99039;-72
2024/02/24 04:05:36;;;;;;;2.10;1.50;;;;;;;6.17;87.80;99040.13;111122;1206;138751;-72
2024/02/24 04:08:02;;;;;;;3.90;1.40;;;;;;;6.12;88.01;99041.42;111067;1206;99610;-72
2024/02/24 04:10:27;;;;;;;1.80;1.60;;;;;;;6.13;88.22;99035.35;111143;1209;99253;-72
2024/02/24 04:12:53;;;;;;;3.80;1.50;;;;;;;6.15;88.26;99035.09;111002;1206;138460;-72
2024/02/24 04:15:22;;;;;;;1.70;1.20;;;;;;;6.16;88.21;99030.95;111131;1209;99104;-72
2024/02/24 04:17:48;;;;;;;2.10;1.10;;;;;;;6.13;88.18;99031.10;111017;1209;139080;-72
2024/02/24 04:20:14;;;;;;;1.40;0.90;;;;;;;6.10;88.16;99030.17;111080;1209;99037;-72
2024/02/24 04:22:40;;;;;;;1.00;0.90;;;;;;;6.05;88.15;99025.84;111256;1206;99035;-72
2024/02/24 04:25:06;;;;;;;0.90;0.90;;;;;;;6.02;88.30;99028.14;110948;1206;138413;-72
2024/02/24 04:27:31;;;;;;;1.10;0.90;;;;;;;6.02;88.38;99026.52;111156;1209;99093;-72
2024/02/24 04:29:57;;;;;;;2.20;1.10;;;;;;;6.01;88.29;99020.73;111016;1206;138767;-72
2024/02/24 04:32:22;;;;;;;1.30;0.80;;;;;;;6.01;88.45;99020.39;111138;1210;99117;-74
2024/02/24 04:34:47;;;;;;;2.20;1.40;;;;;;;6.02;88.47;99016.44;111124;1206;99004;-72
2024/02/24 04:37:13;;;;;;;1.40;0.90;;;;;;;6.02;88.53;99019.27;111042;1206;138381;-72
2024/02/24 04:39:38;;;;;;;2.10;0.70;;;;;;;6.01;88.44;99022.70;111193;1206;99766;-72
2024/02/24 04:42:03;;;;;;;1.20;0.70;;;;;;;5.98;88.36;99031.36;111023;1206;138522;-74
2024/02/24 04:44:28;;;;;;;2.60;1.00;;;;;;;5.93;88.47;99034.47;111156;1210;99035;-71
2024/02/24 04:46:54;;;;;;;2.20;0.80;;;;;;;5.86;88.35;99030.69;111253;1208;99037;-74
2024/02/24 04:49:19;;;;;;;1.10;0.70;;;;;;;5.82;88.44;99022.20;111091;1206;138358;-72
2024/02/24 04:51:44;;;;;;;1.70;0.80;;;;;;;5.80;88.40;99024.08;111156;1206;98934;-73
2024/02/24 04:54:09;;;;;;;1.70;0.70;;;;;;;5.74;88.38;99044.77;111044;1209;139618;-72
2024/02/24 04:56:34;;;;;;;0.60;0.60;;;;;;;5.72;88.45;99056.88;111119;1208;99823;-74
2024/02/24 04:59:00;;;;;;;0.80;0.60;;;;;;;5.70;88.34;99058.61;111193;1206;99062;-72
2024/02/24 05:01:25;;;;;;;1.00;0.80;;;;;;;5.66;88.40;99050.67;111090;1209;139495;-72
2024/02/24 05:03:50;;;;;;;1.40;0.70;;;;;;;5.64;88.48;99050.91;111253;1206;98940;-72
2024/02/24 05:06:16;;;;;;;1.20;0.70;;;;;;;5.60;88.19;99066.91;110959;1207;138369;-72
2024/02/24 05:08:43;;;;;;;1.20;0.50;;;;;;;5.49;88.23;99089.19;111156;1206;98917;-72
2024/02/24 05:11:09;;;;;;;0.30;0.20;;;;;;;5.46;88.57;99100.16;111033;1206;99005;-72
2024/02/24 05:13:35;;;;;;;0.70;0.40;;;;;;;5.42;88.22;99107.23;111109;1209;138852;-72
2024/02/24 05:16:05;;;;;;;1.40;0.30;;;;;;;5.36;88.32;99113.04;111049;1206;99912;-72
2024/02/24 05:18:30;;;;;;;0.40;0.30;;;;;;;5.32;88.31;99113.91;111133;1212;138308;-71
2024/02/24 05:20:58;;;;;;;1.00;0.50;;;;;;;5.30;88.43;99109.76;111075;1207;99256;-72
2024/02/24 05:23:23;;;;;;;0.70;0.30;;;;;;;5.27;88.31;99109.02;111182;1209;99152;-72
2024/02/24 05:25:48;;;;;;;0.20;0.20;;;;;;;5.29;88.65;99107.86;111155;1208;138249;-72
2024/02/24 05:28:13;;;;;;;1.90;0.40;;;;;;;5.30;88.47;99107.48;111161;1209;99561;-72
2024/02/24 05:30:39;;;;;;;0.70;0.20;;;;;;;5.26;88.28;99111.03;111072;1207;139475;-72
2024/02/24 05:33:04;;;;;;;2.00;0.50;;;;;;;5.22;88.29;99114.89;111118;1208;99051;-71
2024/02/24 05:35:29;;;;;;;2.10;0.60;;;;;;;5.17;88.25;99115.67;111046;1209;139590;-71
2024/02/24 05:37:54;;;;;;;0.70;0.40;;;;;;;5.16;88.46;99120.70;111191;1205;99055;-73
2024/02/24 05:40:20;;;;;;;1.50;0.60;;;;;;;5.15;88.49;99126.05;111126;1206;99048;-72
2024/02/24 05:42:45;;;;;;;0.60;0.50;;;;;;;5.15;88.55;99129.59;111138;1210;138290;-72
2024/02/24 05:45:11;;;;;;;0.90;0.60;;;;;;;5.13;88.40;99134.31;111117;1207;98888;-71
2024/02/24 05:47:36;;;;;;;1.20;0.60;;;;;;;5.10;88.58;99146.83;111046;1207;139470;-72
2024/02/24 05:50:01;;;;;;;0.90;0.70;;;;;;;5.07;88.55;99160.42;111121;1206;99101;-72
2024/02/24 05:52:26;;;;;;;1.10;0.50;;;;;;;5.02;88.51;99160.84;111168;1207;100158;-72
2024/02/24 05:54:52;;;;;;;0.70;0.60;;;;;;;4.91;88.33;99162.73;111044;1206;139172;-72
2024/02/24 05:57:17;;;;;;;1.60;0.80;;;;;;;4.89;88.57;99164.39;111152;1206;98921;-72
2024/02/24 05:59:43;;;;;;;1.60;0.40;;;;;;;4.89;88.57;99168.13;111082;1209;138433;-72
2024/02/24 06:02:09;;;;;;;2.30;0.60;;;;;;;4.89;88.81;99173.98;111102;1207;99230;-72
2024/02/24 06:04:34;;;;;;;1.40;0.70;;;;;;;4.89;88.67;99190.59;111064;1207;99018;-73
2024/02/24 06:06:59;;;;;;;1.30;0.70;;;;;;;4.85;88.65;99194.67;110970;1206;138804;-72
2024/02/24 06:09:25;;;;;;;1.10;0.80;;;;;;;4.78;88.56;99196.73;111173;1209;99050;-73
2024/02/24 06:11:50;;;;;;;0.80;0.80;;;;;;;4.74;88.62;99198.16;110953;1209;139091;-72
2024/02/24 06:14:15;;;;;;;0.90;0.70;;;;;;;4.71;88.51;99202.89;111136;1206;99099;-72
2024/02/24 06:16:41;;;;;;;1.00;0.60;;;;;;;4.69;88.87;99206.49;111080;1209;98941;-72
2024/02/24 06:19:08;;;;;;;1.00;0.70;;;;;;;4.71;88.82;99204.14;110991;1206;138455;-72
2024/02/24 06:21:33;;;;;;;1.50;0.70;;;;;;;4.70;88.69;99199.73;111087;1208;98945;-73
2024/02/24 06:23:59;;;;;;;1.90;0.60;;;;;;;4.70;88.93;99197.07;110984;1208;138390;-72
2024/02/24 06:26:24;;;;;;;1.60;0.70;;;;;;;4.70;88.79;99201.85;111205;1206;99047;-72
2024/02/24 06:28:50;;;;;;;2.80;1.10;;;;;;;4.70;88.83;99205.95;111084;1209;98945;-72
2024/02/24 06:31:16;;;;;;;1.00;0.90;;;;;;;4.69;88.92;99207.23;110984;1205;138907;-72
2024/02/24 06:33:43;;;;;;;2.40;1.10;;;;;;;4.67;88.86;99208.90;111162;1206;113121;-73
2024/02/24 06:36:09;;;;;;;1.50;1.20;;;;;;;4.65;89.07;99198.52;110917;1206;138747;-72
2024/02/24 06:38:34;;;;;;;3.00;1.80;;;;;;;4.66;89.03;99203.98;111087;1206;99096;-72
2024/02/24 06:40:59;;;;;;;3.20;1.60;;;;;;;4.69;89.03;99209.53;111057;1211;98947;-72
2024/02/24 06:43:24;;;;;;;3.30;2.10;;;;;;;4.70;89.23;99211.05;111040;1209;139379;-72
2024/02/24 06:45:50;;;;;;;4.20;2.30;;;;;;;4.71;89.23;99220.40;111233;1206;99040;-72
2024/02/24 06:48:15;;;;;;;3.60;2.20;;;;;;;4.72;89.15;99223.55;110943;1210;138548;-72
2024/02/24 06:50:41;;;;;;;6.30;2.40;;;;;;;4.72;89.18;99233.80;111061;1208;98977;-72
2024/02/24 06:53:06;;;;;;;5.50;2.40;;;;;;;4.74;89.40;99240.09;111145;1208;99026;-72
2024/02/24 06:55:31;;;;;;;6.30;2.50;;;;;;;4.75;89.24;99249.41;110957;1209;138480;-72
2024/02/24 06:57:57;;;;;;;7.30;2.10;;;;;;;4.74;89.18;99257.08;111130;1205;98930;-72
2024/02/24 07:00:23;;;;;;;4.10;1.90;;;;;;;4.73;89.27;99266.15;111065;1210;138519;-72
2024/02/24 07:02:49;;;;;;;2.90;1.50;;;;;;;4.74;89.25;99265.94;111175;1207;99038;-72
2024/02/24 07:05:15;;;;;;;4.60;2.20;;;;;;;4.76;89.58;99265.48;111128;1209;99082;-73
2024/02/24 07:07:41;;;;;;;2.10;1.30;;;;;;;4.81;89.63;99268.64;111103;1206;138199;-72
2024/02/24 07:10:08;;;;;;;3.00;1.30;;;;;;;4.83;89.58;99284.99;111187;1208;100819;-72
2024/02/24 07:12:34;;;;;;;1.50;1.20;;;;;;;4.83;89.45;99289.07;111281;1209;138757;-72
2024/02/24 07:14:59;;;;;;;5.00;1.40;;;;;;;4.81;89.37;99298.02;111139;1208;99074;-72
2024/02/24 07:17:26;;;;;;;2.60;1.30;;;;;;;4.83;89.61;99308.58;111163;1208;99462;-72
2024/02/24 07:19:52;;;;;;;3.50;1.80;;;;;;;4.82;89.59;99315.11;111181;1208;99169;-72
2024/02/24 07:22:17;;;;;;;3.30;1.60;;;;;;;4.80;89.43;99317.35;111465;1207;99011;-72
2024/02/24 07:24:43;;;;;;;3.80;1.40;;;;;;;4.76;89.46;99321.42;111183;1209;138904;-72
2024/02/24 07:27:09;;;;;;;2.40;1.70;;;;;;;4.75;89.60;99330.98;111093;1210;98930;-66
2024/02/24 07:29:35;;;;;;;1.80;1.20;;;;;;;4.74;89.70;99335.11;111139;1206;139394;-66
2024/02/24 07:32:00;;;;;;;2.00;1.50;;;;;;;4.74;89.59;99337.26;111132;1206;99026;-66
2024/02/24 07:34:26;;;;;;;2.60;1.40;;;;;;;4.73;89.69;99342.25;111169;1208;99067;-66
2024/02/24 07:36:51;;;;;;;2.90;1.50;;;;;;;4.71;89.65;99348.31;111047;1208;138881;-66
2024/02/24 07:39:17;;;;;;;1.50;0.90;;;;;;;4.71;89.82;99349.23;111207;1206;98990;-66
2024/02/24 07:41:42;;;;;;;2.30;1.50;;;;;;;4.69;89.61;99354.42;111060;1208;139176;-66
2024/02/24 07:44:08;;;;;;;2.30;1.20;;;;;;;4.67;89.75;99354.15;111173;1208;99863;-66
2024/02/24 07:46:33;;;;;;;2.30;1.20;;;;;;;4.69;90.00;99356.05;111130;1208;112957;-65
2024/02/24 07:49:00;;;;;;;1.50;1.00;;;;;;;4.73;89.95;99355.33;110982;1210;140051;-66
2024/02/24 07:51:27;;;;;;;7.10;1.00;;;;;;;4.77;89.92;99358.35;111223;1207;99086;-66
2024/02/24 07:53:53;;;;;;;1.60;1.00;;;;;;;4.75;89.76;99357.35;111052;1208;138743;-66
2024/02/24 07:56:20;;;;;;;1.10;1.00;;;;;;;4.71;89.93;99361.95;111165;1206;98942;-66
2024/02/24 07:58:45;;;;;;;3.30;1.50;;;;;;;4.72;89.95;99364.21;111166;1208;99042;-67
2024/02/24 08:01:10;;;;;;;2.00;1.30;;;;;;;4.72;89.93;99368.98;111029;1208;139509;-66
2024/02/24 08:03:36;;;;;;;1.40;1.10;;;;;;;4.75;90.01;99368.67;111167;1210;99423;-66
2024/02/24 08:06:01;;;;;;;2.50;1.30;;;;;;;4.76;90.12;99378.36;110860;1210;139456;-65
2024/02/24 08:08:26;;;;;;;2.90;1.70;;;;;;;4.76;90.10;99385.99;111100;1208;105956;-65
2024/02/24 08:10:52;;;;;;;2.40;1.30;;;;;;;4.75;90.26;99386.75;111092;1210;98950;-67
2024/02/24 08:13:17;;;;;;;2.90;1.80;;;;;;;4.77;90.36;99388.45;111100;1208;138545;-66
2024/02/24 08:15:42;;;;;;;1.80;1.30;;;;;;;4.79;90.44;99397.20;111169;1209;98972;-65
2024/02/24 08:18:08;;;;;;;2.40;1.50;;;;;;;4.81;90.46;99402.61;110989;1209;138999;-66
2024/02/24 08:20:33;;;;;;;1.50;1.10;;;;;;;4.84;90.50;99403.02;111161;1210;98930;-65
2024/02/24 08:22:58;;;;;;;2.00;1.40;;;;;;;4.91;90.61;99405.58;111046;1210;99013;-65
2024/02/24 08:25:24;;;;;;;2.30;1.30;;;;;;;4.98;90.57;99406.02;111176;1208;138281;-65
2024/02/24 08:27:50;;;;;;;4.40;1.90;;;;;;;5.08;90.80;99413.91;111208;1210;99112;-66
2024/02/24 08:30:15;;;;;;;1.70;1.30;;;;;;;5.12;90.64;99415.55;111045;1207;138362;-66
2024/02/24 08:32:41;;;;;;;2.20;1.60;;;;;;;5.14;90.54;99413.85;111422;1210;99054;-66
2024/02/24 08:35:07;;;;;;;3.10;2.50;;;;;;;5.20;90.85;99408.61;111138;1210;98953;-66
2024/02/24 08:37:32;;;;;;;5.30;1.50;;;;;;;5.30;90.88;99415.80;111187;1208;138646;-65
2024/02/24 08:39:57;;;;;;;4.30;2.60;;;;;;;5.38;90.96;99421.84;111141;1210;98928;-67
2024/02/24 08:42:22;;;;;;;5.50;2.40;;;;;;;5.44;90.98;99430.43;110948;1210;138267;-67
2024/02/24 08:44:47;;;;;;;3.10;2.20;;;;;;;5.48;90.98;99436.64;111220;1209;99009;-66
2024/02/24 08:47:13;;;;;;;3.30;1.70;;;;;;;5.49;90.95;99430.08;111125;1209;99149;-67
2024/02/24 08:49:38;;;;;;;3.50;1.30;;;;;;;5.50;91.03;99437.43;111105;1208;139117;-66
2024/02/24 08:52:04;;;;;;;2.60;1.50;;;;;;;5.54;90.92;99439.60;111147;1209;99038;-66
2024/02/24 08:54:29;;;;;;;4.70;1.90;;;;;;;5.60;91.02;99439.52;111017;1206;138303;-66
2024/02/24 08:56:54;;;;;;;2.40;2.10;;;;;;;5.67;91.15;99447.02;111179;1210;98964;-67
2024/02/24 08:59:20;;;;;;;3.60;1.90;;;;;;;5.74;91.33;99444.21;111063;1210;97667;-67
2024/02/24 09:01:45;;;;;;;4.00;2.00;;;;;;;5.81;91.22;99446.78;111114;1210;139230;-67
2024/02/24 09:04:11;;;;;;;3.90;2.40;;;;;;;5.82;91.20;99449.36;111156;1206;98923;-67
2024/02/24 09:06:36;;;;;;;15.10;2.30;;;;;;;5.86;91.18;99452.77;111066;1208;139555;-67
2024/02/24 09:09:04;;;;;;;2.80;1.80;;;;;;;5.90;91.29;99451.72;111175;1210;99001;-67
2024/02/24 09:11:30;;;;;;;2.30;1.80;;;;;;;5.92;91.17;99452.55;111045;1210;139529;-67
2024/02/24 09:13:56;;;;;;;3.80;1.90;;;;;;;5.93;91.18;99458.36;111179;1208;98987;-67
2024/02/24 09:16:21;;;;;;;4.10;2.10;;;;;;;5.96;91.16;99463.36;111234;1210;97410;-67
2024/02/24 09:18:47;;;;;;;3.30;2.10;;;;;;;5.99;91.21;99472.28;111153;1210;138272;-67
2024/02/24 09:21:12;;;;;;;3.10;2.00;;;;;;;6.00;91.21;99475.94;111135;1211;98980;-67
2024/02/24 09:23:37;;;;;;;5.20;2.20;;;;;;;6.01;91.19;99481.91;111144;1210;139934;-67
2024/02/24 09:26:03;;;;;;;5.70;2.20;;;;;;;6.04;91.20;99488.88;111124;1206;98920;-67
2024/02/24 09:28:28;;;;;;;4.70;2.00;;;;;;;6.10;91.26;99493.40;111222;1210;99134;-67
2024/02/24 09:30:53;;;;;;;2.80;1.60;;;;;;;6.14;91.17;99497.49;110987;1208;139453;-67
2024/02/24 09:33:19;;;;;;;3.50;1.80;;;;;;;6.16;91.02;99504.86;111078;1210;99106;-67
2024/02/24 09:35:44;;;;;;;4.60;2.10;;;;;;;6.16;91.05;99505.91;111125;1210;138935;-67
2024/02/24 09:38:09;;;;;;;3.20;1.70;;;;;;;6.16;91.01;99503.77;111136;1208;98926;-67
2024/02/24 09:40:35;;;;;;;6.60;1.80;;;;;;;6.18;90.94;99512.77;111214;1211;98930;-67
2024/02/24 09:43:03;;;;;;;2.50;1.70;;;;;;;6.21;90.97;99513.19;111055;1208;138327;-67
2024/02/24 09:45:33;;;;;;;4.00;2.00;;;;;;;6.23;90.94;99519.30;111110;1207;107455;-67
2024/02/24 09:48:00;;;;;;;3.50;1.80;;;;;;;6.27;90.95;99527.46;111016;1210;139338;-67
2024/02/24 09:50:25;;;;;;;5.80;2.40;;;;;;;6.28;90.88;99529.52;111159;1208;97484;-67
2024/02/24 09:52:50;;;;;;;3.50;2.50;;;;;;;6.30;90.89;99533.00;111238;1210;99123;-67
2024/02/24 09:55:17;;;;;;;4.50;1.90;;;;;;;6.33;90.96;99545.62;110987;1210;138168;-67
2024/02/24 09:57:43;;;;;;;3.10;2.20;;;;;;;6.38;90.88;99549.14;111285;1207;98915;-68
2024/02/24 10:00:09;;;;;;;5.10;1.70;;;;;;;6.41;90.70;99549.02;111143;1209;138764;-67
2024/02/24 10:02:34;;;;;;;3.10;1.50;;;;;;;6.45;90.73;99551.65;111253;1206;99029;-67
2024/02/24 10:05:00;;;;;;;4.80;1.70;;;;;;;6.47;90.64;99555.47;111079;1210;99029;-67
2024/02/24 10:07:27;;;;;;;6.80;2.10;;;;;;;6.50;90.60;99556.21;111161;1209;139211;-67
2024/02/24 10:09:53;;;;;;;4.50;2.40;;;;;;;6.53;90.51;99554.33;111099;1206;113458;-67
2024/02/24 10:12:18;;;;;;;5.50;2.20;;;;;;;6.56;90.48;99559.16;111079;1206;139804;-67
2024/02/24 10:14:43;;;;;;;6.40;3.00;;;;;;;6.60;90.50;99563.61;111223;1206;98994;-67
2024/02/24 10:17:09;;;;;;;8.10;2.80;;;;;;;6.65;90.57;99565.52;111185;1210;98943;-67
2024/02/24 10:19:35;;;;;;;9.30;2.80;;;;;;;6.71;90.52;99566.11;111100;1206;138383;-67
2024/02/24 10:22:02;;;;;;;5.80;2.70;;;;;;;6.75;90.47;99569.68;111144;1207;99004;-67
2024/02/24 10:24:27;;;;;;;5.50;2.30;;;;;;;6.79;90.39;99577.28;111143;1211;139347;-67
2024/02/24 10:26:53;;;;;;;4.50;2.70;;;;;;;6.84;90.20;99578.87;111079;1206;99033;-67
2024/02/24 10:29:22;;;;;;;9.00;2.50;;;;;;;6.86;90.11;99583.04;111155;1210;99095;-67
2024/02/24 10:31:49;;;;;;;11.30;2.80;;;;;;;6.90;90.11;99583.92;111074;1210;138243;-67
2024/02/24 10:34:16;;;;;;;7.40;2.70;;;;;;;6.94;89.99;99585.70;111245;1210;99037;-67
2024/02/24 10:36:43;;;;;;;7.10;2.30;;;;;;;6.97;89.99;99590.33;111113;1210;139852;-67
2024/02/24 10:39:09;;;;;;;6.10;2.70;;;;;;;7.00;89.92;99596.06;111089;1210;101650;-66
2024/02/24 10:41:35;;;;;;;4.20;2.30;;;;;;;7.07;90.05;99599.27;111149;1205;139759;-67
2024/02/24 10:44:02;;;;;;;6.40;2.90;;;;;;;7.18;89.91;99596.29;111137;1206;98936;-67
2024/02/24 10:46:28;;;;;;;7.30;2.60;;;;;;;7.30;89.94;99599.67;111222;1211;99041;-66
2024/02/24 10:48:54;;;;;;;4.40;2.10;;;;;;;7.38;89.83;99609.22;111208;1206;138566;-66
2024/02/24 10:51:22;;;;;;;6.40;2.70;;;;;;;7.44;89.64;99619.23;111228;1210;98965;-66
2024/02/24 10:53:52;;;;;;;6.00;2.50;;;;;;;7.48;89.52;99616.92;111102;1207;139272;-65
2024/02/24 10:56:19;;;;;;;6.40;2.40;;;;;;;7.49;89.46;99614.55;111075;1206;100375;-65
2024/02/24 10:58:45;;;;;;;4.60;3.00;;;;;;;7.56;89.45;99613.55;111212;1210;98927;-65
2024/02/24 11:01:11;;;;;;;6.80;3.20;;;;;;;7.64;89.48;99613.14;111207;1210;139272;-66
2024/02/24 11:03:36;;;;;;;6.20;2.80;;;;;;;7.71;89.42;99617.98;111251;1210;98922;-65
2024/02/24 11:06:02;;;;;;;9.80;4.50;;;;;;;7.76;89.27;99617.90;111004;1207;139351;-65
2024/02/24 11:08:38;;;;;;;5.30;2.70;;;;;;;7.83;89.27;99615.40;111168;1211;98975;-65
2024/02/24 11:11:16;;;;;;;6.80;3.10;;;;;;;7.86;89.08;99617.71;111104;1209;99948;-67
2024/02/24 11:13:46;;;;;;;8.30;2.80;;;;;;;7.88;88.95;99616.41;111093;1206;138535;-72
2024/02/24 11:16:12;;;;;;;4.60;2.50;;;;;;;7.92;88.95;99616.38;111257;1207;99014;-65
2024/02/24 11:18:49;;;;;;;4.30;2.20;;;;;;;7.96;88.72;99616.73;111046;1206;138767;-65
2024/02/24 11:21:19;;;;;;;6.30;2.20;;;;;;;7.98;88.58;99621.25;111124;1206;112940;-67